createdAt,value
2023-06-04T00:02:11.432Z,94.52
2023-06-04T00:04:38.061Z,94.02
2023-06-04T00:07:04.916Z,94.94
2023-06-04T00:09:31.584Z,96.38
2023-06-04T00:11:58.754Z,98.43
2023-06-04T00:14:25.460Z,96.64
2023-06-04T00:16:52.052Z,98.72
2023-06-04T00:19:18.663Z,98.14
2023-06-04T00:21:46.502Z,96.98
2023-06-04T00:24:16.119Z,98.70
2023-06-04T00:26:42.778Z,96.76
2023-06-04T00:29:09.545Z,97.43
2023-06-04T00:31:36.740Z,97.74
2023-06-04T00:34:05.524Z,95.21
2023-06-04T00:36:32.081Z,94.08
2023-06-04T00:38:58.683Z,94.27
2023-06-04T00:41:25.223Z,95.85
2023-06-04T00:43:57.388Z,94.91
2023-06-04T00:46:26.495Z,95.37
2023-06-04T00:48:54.324Z,95.72
2023-06-04T00:51:24.242Z,97.59
2023-06-04T00:53:52.233Z,97.85
2023-06-04T00:56:19.589Z,99.82
2023-06-04T00:58:47.404Z,100.00
2023-06-04T01:01:37.802Z,100.00
2023-06-04T01:04:10.305Z,100.00
2023-06-04T01:06:40.700Z,100.00
2023-06-04T01:09:08.755Z,100.00
2023-06-04T01:11:36.668Z,100.00
2023-06-04T01:14:09.664Z,100.00
2023-06-04T01:16:42.534Z,100.00
2023-06-04T01:19:33.904Z,100.00
2023-06-04T01:22:09.412Z,100.00
2023-06-04T01:24:38.767Z,100.00
2023-06-04T01:27:07.545Z,100.00
2023-06-04T01:29:37.250Z,100.00
2023-06-04T01:32:04.907Z,100.00
2023-06-04T01:34:31.478Z,100.00
2023-06-04T01:36:58.183Z,100.00
2023-06-04T01:39:24.704Z,100.00
2023-06-04T01:41:51.276Z,100.00
2023-06-04T01:44:17.809Z,100.00
2023-06-04T01:46:44.388Z,100.00
2023-06-04T01:49:11.824Z,100.00
2023-06-04T01:51:38.408Z,100.00
2023-06-04T01:54:05.048Z,100.00
2023-06-04T01:56:31.622Z,100.00
2023-06-04T01:58:58.251Z,100.00
2023-06-04T02:01:24.846Z,100.00
2023-06-04T02:03:52.007Z,100.00
2023-06-04T02:06:18.653Z,100.00
2023-06-04T02:08:45.169Z,100.00
2023-06-04T02:11:11.686Z,100.00
2023-06-04T02:13:38.300Z,100.00
2023-06-04T02:16:05.237Z,100.00
2023-06-04T02:18:31.791Z,100.00
2023-06-04T02:20:59.609Z,100.00
2023-06-04T02:23:26.320Z,100.00
2023-06-04T02:25:52.924Z,100.00
2023-06-04T02:28:19.560Z,100.00
2023-06-04T02:30:49.709Z,100.00
2023-06-04T02:33:16.588Z,100.00
2023-06-04T02:35:43.338Z,100.00
2023-06-04T02:38:09.887Z,100.00
2023-06-04T02:40:36.576Z,100.00
2023-06-04T02:43:03.172Z,100.00
2023-06-04T02:45:29.958Z,100.00
2023-06-04T02:47:56.728Z,100.00
2023-06-04T02:50:23.390Z,100.00
2023-06-04T02:52:50.057Z,100.00
2023-06-04T02:55:16.814Z,100.00
2023-06-04T02:57:44.152Z,100.00
2023-06-04T03:00:13.706Z,100.00
2023-06-04T03:02:48.351Z,100.00
2023-06-04T03:05:16.411Z,100.00
2023-06-04T03:07:45.946Z,100.00
2023-06-04T03:10:14.044Z,100.00
2023-06-04T03:12:40.919Z,100.00
2023-06-04T03:15:08.176Z,100.00
2023-06-04T03:17:34.806Z,100.00
2023-06-04T03:20:01.455Z,100.00
2023-06-04T03:22:29.454Z,100.00
2023-06-04T03:24:56.286Z,100.00
2023-06-04T03:27:23.131Z,100.00
2023-06-04T03:29:49.707Z,100.00
2023-06-04T03:32:17.248Z,100.00
2023-06-04T03:34:44.384Z,100.00
2023-06-04T03:37:11.066Z,100.00
2023-06-04T03:39:37.630Z,100.00
2023-06-04T03:42:04.470Z,100.00
2023-06-04T03:44:31.095Z,100.00
2023-06-04T03:46:57.704Z,100.00
2023-06-04T03:49:24.338Z,100.00
2023-06-04T03:51:50.949Z,100.00
2023-06-04T03:54:20.381Z,100.00
2023-06-04T03:56:47.665Z,100.00
2023-06-04T03:59:14.293Z,100.00
2023-06-04T04:01:40.846Z,100.00
2023-06-04T04:04:07.436Z,100.00
2023-06-04T04:06:34.257Z,100.00
2023-06-04T04:09:00.898Z,100.00
2023-06-04T04:11:27.468Z,100.00
2023-06-04T04:13:54.004Z,100.00
2023-06-04T04:16:20.750Z,100.00
2023-06-04T04:18:47.548Z,100.00
2023-06-04T04:21:14.232Z,100.00
2023-06-04T04:23:43.704Z,100.00
2023-06-04T04:26:11.255Z,100.00
2023-06-04T04:28:38.249Z,100.00
2023-06-04T04:31:05.977Z,99.32
2023-06-04T04:33:33.512Z,97.42
2023-06-04T04:36:01.027Z,96.34
2023-06-04T04:38:29.805Z,96.52
2023-06-04T04:40:56.583Z,93.49
2023-06-04T04:43:38.697Z,90.45
2023-06-04T04:46:05.845Z,89.59
2023-06-04T04:48:32.886Z,89.88
2023-06-04T04:50:59.434Z,88.15
2023-06-04T04:53:27.253Z,87.27
2023-06-04T04:55:53.838Z,88.57
2023-06-04T04:58:20.538Z,90.55
2023-06-04T05:00:48.968Z,88.56
2023-06-04T05:03:15.677Z,87.50
2023-06-04T05:05:42.398Z,86.91
2023-06-04T05:08:09.336Z,85.45
2023-06-04T05:10:37.151Z,83.43
2023-06-04T05:13:04.163Z,81.25
2023-06-04T05:15:30.757Z,79.07
2023-06-04T05:17:57.581Z,76.99
2023-06-04T05:20:24.368Z,74.84
2023-06-04T05:22:51.176Z,72.83
2023-06-04T05:25:17.846Z,72.37
2023-06-04T05:27:44.879Z,73.32
2023-06-04T05:30:12.278Z,72.76
2023-06-04T05:32:42.074Z,71.32
2023-06-04T05:35:09.730Z,70.60
2023-06-04T05:37:39.153Z,67.89
2023-06-04T05:40:06.825Z,65.16
2023-06-04T05:42:33.857Z,62.32
2023-06-04T05:45:00.674Z,62.65
2023-06-04T05:47:30.076Z,59.73
2023-06-04T05:49:57.333Z,59.98
2023-06-04T05:52:24.436Z,59.63
2023-06-04T05:54:51.252Z,58.99
2023-06-04T05:57:17.787Z,59.19
2023-06-04T05:59:44.340Z,58.82
2023-06-04T06:02:10.854Z,58.33
2023-06-04T06:04:37.804Z,59.50
2023-06-04T06:07:04.906Z,57.86
2023-06-04T06:09:31.522Z,56.67
2023-06-04T06:11:59.217Z,54.80
2023-06-04T06:14:25.802Z,53.88
2023-06-04T06:16:52.375Z,52.93
2023-06-04T06:19:19.406Z,52.37
2023-06-04T06:21:46.229Z,52.02
2023-06-04T06:24:13.313Z,50.40
2023-06-04T06:26:39.968Z,51.45
2023-06-04T06:29:06.766Z,50.43
2023-06-04T06:31:33.456Z,49.94
2023-06-04T06:34:00.111Z,49.15
2023-06-04T06:36:27.536Z,49.95
2023-06-04T06:38:54.105Z,48.25
2023-06-04T06:41:20.931Z,47.65
2023-06-04T06:43:47.542Z,47.09
2023-06-04T06:46:14.120Z,47.99
2023-06-04T06:48:41.854Z,45.80
2023-06-04T06:51:08.695Z,45.13
2023-06-04T06:53:36.031Z,44.82
2023-06-04T06:56:02.643Z,43.88
2023-06-04T06:58:29.205Z,44.37
2023-06-04T07:00:57.634Z,43.88
2023-06-04T07:03:24.370Z,44.66
2023-06-04T07:05:50.936Z,45.36
2023-06-04T07:08:17.474Z,44.02
2023-06-04T07:10:44.164Z,44.24
2023-06-04T07:13:10.817Z,42.04
2023-06-04T07:15:37.351Z,42.92
2023-06-04T07:18:04.179Z,43.42
2023-06-04T07:20:31.815Z,42.78
2023-06-04T07:22:58.396Z,42.98
2023-06-04T07:25:25.122Z,40.97
2023-06-04T07:27:51.766Z,38.17
2023-06-04T07:30:19.727Z,34.20
2023-06-04T07:32:49.462Z,32.67
2023-06-04T07:35:16.479Z,31.82
2023-06-04T07:37:45.432Z,31.08
2023-06-04T07:40:12.861Z,29.53
2023-06-04T07:42:39.382Z,29.15
2023-06-04T07:45:06.622Z,28.63
2023-06-04T07:47:33.230Z,26.78
2023-06-04T07:50:03.372Z,26.90
2023-06-04T07:52:30.607Z,26.23
2023-06-04T07:54:57.880Z,26.17
2023-06-04T07:57:24.669Z,25.40
2023-06-04T07:59:52.476Z,24.99
2023-06-04T08:02:19.654Z,25.05
2023-06-04T08:04:47.487Z,24.86
2023-06-04T08:07:14.116Z,24.88
2023-06-04T08:09:41.030Z,24.50
2023-06-04T08:12:09.960Z,24.39
2023-06-04T08:14:37.469Z,24.29
2023-06-04T08:17:04.266Z,24.31
2023-06-04T08:19:30.946Z,24.03
2023-06-04T08:21:57.855Z,23.10
2023-06-04T08:24:24.408Z,22.98
2023-06-04T08:26:51.441Z,23.09
2023-06-04T08:29:18.260Z,22.38
2023-06-04T08:31:44.887Z,21.54
2023-06-04T08:34:11.592Z,22.06
2023-06-04T08:36:38.131Z,21.87
2023-06-04T08:39:04.678Z,21.67
2023-06-04T08:41:45.858Z,21.01
2023-06-04T08:44:12.586Z,20.39
2023-06-04T08:46:43.188Z,19.72
2023-06-04T08:49:10.102Z,19.68
2023-06-04T08:51:38.564Z,20.11
2023-06-04T08:54:09.275Z,20.04
2023-06-04T08:56:36.893Z,19.26
2023-06-04T08:59:08.757Z,19.27
2023-06-04T09:01:38.171Z,19.88
2023-06-04T09:04:08.735Z,20.01
2023-06-04T09:06:38.841Z,20.04
2023-06-04T09:09:08.403Z,21.00
2023-06-04T09:11:39.312Z,21.65
2023-06-04T09:14:09.811Z,22.55
2023-06-04T09:16:47.515Z,22.82
2023-06-04T09:19:14.836Z,21.57
2023-06-04T09:21:56.306Z,21.90
2023-06-04T09:24:39.687Z,22.38
2023-06-04T09:27:14.119Z,22.22
2023-06-04T09:29:41.944Z,21.16
2023-06-04T09:32:08.532Z,21.04
2023-06-04T09:34:37.540Z,19.78
2023-06-04T09:37:05.040Z,19.30
2023-06-04T09:39:31.617Z,19.44
2023-06-04T09:42:00.670Z,19.11
2023-06-04T09:44:27.714Z,18.52
2023-06-04T09:46:56.407Z,17.75
2023-06-04T09:49:23.007Z,17.03
2023-06-04T09:51:49.992Z,17.11
2023-06-04T09:54:17.612Z,16.89
2023-06-04T09:56:44.262Z,17.87
2023-06-04T09:59:11.098Z,17.99
2023-06-04T10:01:44.256Z,17.20
2023-06-04T10:04:14.274Z,17.24
2023-06-04T10:06:42.726Z,17.44
2023-06-04T10:09:10.475Z,16.99
2023-06-04T10:11:45.767Z,15.85
2023-06-04T10:14:24.847Z,15.88
2023-06-04T10:16:52.852Z,16.16
2023-06-04T10:19:19.874Z,17.58
2023-06-04T10:21:47.002Z,17.73
2023-06-04T10:24:15.334Z,17.96
2023-06-04T10:26:43.569Z,17.00
2023-06-04T10:29:11.809Z,16.01
2023-06-04T10:31:38.709Z,17.06
2023-06-04T10:34:05.322Z,18.01
2023-06-04T10:36:31.947Z,18.32
2023-06-04T10:38:58.546Z,18.26
2023-06-04T10:41:26.032Z,19.67
2023-06-04T10:44:01.778Z,19.88
2023-06-04T10:46:40.325Z,19.78
2023-06-04T10:49:06.951Z,20.00
2023-06-04T10:51:34.767Z,19.06
2023-06-04T10:54:02.941Z,17.95
2023-06-04T10:56:33.214Z,16.49
2023-06-04T10:59:00.630Z,16.31
2023-06-04T11:01:29.536Z,16.29
2023-06-04T11:03:56.672Z,16.42
2023-06-04T11:06:24.209Z,16.41
2023-06-04T11:08:50.963Z,16.08
2023-06-04T11:11:17.900Z,15.38
2023-06-04T11:13:44.752Z,16.25
2023-06-04T11:16:22.031Z,16.78
2023-06-04T11:18:56.975Z,17.80
2023-06-04T11:21:26.938Z,18.08
2023-06-04T11:24:00.710Z,16.84
2023-06-04T11:26:36.744Z,17.26
2023-06-04T11:29:09.477Z,16.70
2023-06-04T11:31:46.901Z,16.09
2023-06-04T11:34:30.151Z,16.41
2023-06-04T11:36:56.963Z,16.48
2023-06-04T11:39:24.018Z,16.63
2023-06-04T11:41:52.469Z,16.70
2023-06-04T11:44:20.885Z,16.80
2023-06-04T11:46:49.648Z,16.95
2023-06-04T11:49:17.107Z,16.54
2023-06-04T11:51:53.387Z,17.27
2023-06-04T11:54:22.088Z,19.17
2023-06-04T11:56:52.548Z,19.68
2023-06-04T11:59:19.809Z,19.67
2023-06-04T12:01:47.805Z,19.30
2023-06-04T12:04:19.760Z,19.39
2023-06-04T12:06:57.618Z,18.24
2023-06-04T12:09:28.235Z,18.03
2023-06-04T12:12:01.820Z,18.77
2023-06-04T12:14:29.785Z,18.57
2023-06-04T12:17:01.547Z,19.21
2023-06-04T12:19:29.094Z,20.50
2023-06-04T12:22:08.808Z,22.64
2023-06-04T12:24:47.379Z,23.37
2023-06-04T12:27:13.892Z,24.89
2023-06-04T12:29:40.900Z,25.06
2023-06-04T12:32:12.287Z,24.30
2023-06-04T12:34:41.255Z,24.65
2023-06-04T12:37:08.954Z,25.53
2023-06-04T12:39:38.829Z,25.51
2023-06-04T12:42:11.748Z,25.41
2023-06-04T12:44:41.698Z,25.30
2023-06-04T12:47:09.342Z,25.94
2023-06-04T12:49:36.450Z,25.40
2023-06-04T12:52:03.382Z,26.87
2023-06-04T12:54:30.034Z,27.11
2023-06-04T12:56:59.974Z,26.68
2023-06-04T12:59:28.004Z,26.17
2023-06-04T13:01:55.937Z,28.43
2023-06-04T13:04:24.561Z,28.89
2023-06-04T13:06:53.403Z,27.20
2023-06-04T13:09:21.588Z,27.26
2023-06-04T13:11:48.225Z,27.52
2023-06-04T13:14:14.802Z,27.62
2023-06-04T13:16:42.103Z,27.88
2023-06-04T13:19:09.256Z,29.14
2023-06-04T13:21:36.532Z,29.60
2023-06-04T13:24:03.406Z,31.18
2023-06-04T13:26:29.983Z,30.07
2023-06-04T13:28:56.680Z,30.23
2023-06-04T13:31:23.293Z,30.50
2023-06-04T13:33:49.894Z,30.94
2023-06-04T13:36:16.484Z,30.46
2023-06-04T13:38:44.279Z,30.85
2023-06-04T13:41:11.218Z,30.85
2023-06-04T13:43:37.907Z,31.07
2023-06-04T13:46:05.035Z,30.98
2023-06-04T13:48:31.784Z,30.94
2023-06-04T13:50:58.361Z,31.01
2023-06-04T13:53:24.922Z,31.48
2023-06-04T13:55:58.600Z,31.33
2023-06-04T13:58:28.867Z,31.04
2023-06-04T14:00:55.783Z,31.92
2023-06-04T14:03:22.665Z,31.64
2023-06-04T14:05:49.483Z,30.65
2023-06-04T14:08:16.102Z,30.74
2023-06-04T14:10:42.852Z,31.70
2023-06-04T14:13:10.154Z,32.08
2023-06-04T14:15:36.950Z,32.10
2023-06-04T14:18:05.070Z,32.74
2023-06-04T14:20:31.829Z,32.55
2023-06-04T14:22:58.462Z,32.85
2023-06-04T14:25:25.167Z,32.73
2023-06-04T14:27:52.025Z,31.78
2023-06-04T14:33:57.842Z,31.38
2023-06-04T14:36:24.959Z,31.55
2023-06-04T14:42:20.255Z,31.69
2023-06-04T14:44:47.076Z,32.24
2023-06-04T14:47:13.784Z,32.06
2023-06-04T14:49:40.540Z,32.61
2023-06-04T14:52:07.395Z,33.04
2023-06-04T14:54:35.854Z,32.26
2023-06-04T14:57:03.023Z,32.13
2023-06-04T14:59:29.717Z,32.22
2023-06-04T15:01:56.627Z,32.36
2023-06-04T15:04:23.731Z,32.43
2023-06-04T15:06:50.941Z,33.19
2023-06-04T15:09:17.477Z,31.52
2023-06-04T15:11:44.340Z,32.73
2023-06-04T15:14:10.937Z,32.70
2023-06-04T15:16:37.498Z,31.97
2023-06-04T15:19:04.644Z,32.13
2023-06-04T15:21:31.286Z,33.68
2023-06-04T15:23:57.933Z,33.80
2023-06-04T15:26:25.882Z,35.34
2023-06-04T15:28:57.786Z,33.44
2023-06-04T15:31:24.480Z,33.53
2023-06-04T15:33:51.507Z,34.65
2023-06-04T15:36:18.097Z,35.32
2023-06-04T15:38:44.680Z,35.48
2023-06-04T15:41:11.371Z,35.95
2023-06-04T15:43:37.906Z,35.72
2023-06-04T15:46:04.566Z,36.02
2023-06-04T15:48:31.641Z,37.20
2023-06-04T15:50:58.388Z,37.12
2023-06-04T15:53:25.031Z,36.60
2023-06-04T15:55:51.946Z,36.12
2023-06-04T15:58:18.524Z,36.64
2023-06-04T16:00:45.396Z,35.74
2023-06-04T16:03:12.016Z,35.72
2023-06-04T16:05:38.603Z,35.89
2023-06-04T16:08:05.257Z,36.08
2023-06-04T16:10:33.057Z,36.11
2023-06-04T16:12:59.637Z,36.62
2023-06-04T16:15:26.258Z,37.04
2023-06-04T16:17:52.931Z,37.29
2023-06-04T16:20:20.152Z,37.74
2023-06-04T16:22:47.134Z,38.31
2023-06-04T16:25:18.547Z,37.45
2023-06-04T16:27:48.457Z,38.19
2023-06-04T16:30:15.327Z,38.29
2023-06-04T16:32:42.128Z,38.50
2023-06-04T16:35:10.462Z,38.22
2023-06-04T16:37:38.244Z,38.71
2023-06-04T16:40:05.722Z,39.99
2023-06-04T16:42:32.530Z,37.89
2023-06-04T16:44:59.141Z,38.89
2023-06-04T16:47:25.740Z,40.09
2023-06-04T16:49:53.219Z,40.10
2023-06-04T16:52:19.835Z,40.64
2023-06-04T16:54:47.278Z,40.89
2023-06-04T16:57:14.006Z,41.29
2023-06-04T16:59:47.088Z,41.59
2023-06-04T17:02:14.703Z,41.73
2023-06-04T17:04:43.085Z,42.11
2023-06-04T17:07:11.053Z,42.56
2023-06-04T17:09:38.592Z,42.06
2023-06-04T17:12:05.600Z,42.74
2023-06-04T17:14:32.146Z,43.63
2023-06-04T17:16:58.733Z,43.98
2023-06-04T17:19:25.381Z,44.55
2023-06-04T17:21:51.952Z,44.90
2023-06-04T17:24:18.668Z,44.70
2023-06-04T17:26:45.517Z,44.95
2023-06-04T17:29:12.032Z,45.05
2023-06-04T17:31:38.638Z,44.91
2023-06-04T17:34:05.147Z,45.45
2023-06-04T17:36:31.747Z,45.18
2023-06-04T17:38:58.298Z,45.13
2023-06-04T17:41:24.921Z,45.44
2023-06-04T17:43:51.468Z,45.93
2023-06-04T17:46:18.010Z,46.34
2023-06-04T17:48:44.667Z,46.88
2023-06-04T17:51:11.248Z,47.38
2023-06-04T17:53:37.769Z,47.89
2023-06-04T17:56:04.402Z,49.21
2023-06-04T17:58:31.163Z,48.80
2023-06-04T18:00:57.802Z,49.03
2023-06-04T18:03:24.606Z,49.81
2023-06-04T18:05:51.199Z,49.81
2023-06-04T18:08:17.905Z,50.13
2023-06-04T18:10:44.525Z,49.62
2023-06-04T18:13:12.109Z,50.01
2023-06-04T18:15:38.746Z,51.20
2023-06-04T18:18:05.447Z,50.57
2023-06-04T18:20:32.274Z,51.04
2023-06-04T18:22:58.821Z,51.51
2023-06-04T18:25:26.001Z,52.62
2023-06-04T18:27:52.637Z,52.92
2023-06-04T18:30:19.307Z,53.00
2023-06-04T18:32:48.314Z,53.73
2023-06-04T18:35:16.032Z,53.55
2023-06-04T18:37:43.570Z,53.98
2023-06-04T18:40:13.029Z,54.58
2023-06-04T18:42:39.871Z,55.14
2023-06-04T18:45:10.261Z,54.99
2023-06-04T18:47:38.012Z,55.08
2023-06-04T18:50:05.521Z,56.02
2023-06-04T18:52:34.237Z,54.95
2023-06-04T18:55:01.818Z,56.88
2023-06-04T18:57:28.603Z,57.47
2023-06-04T18:59:55.388Z,57.99
2023-06-04T19:02:22.067Z,57.99
2023-06-04T19:04:48.717Z,58.69
2023-06-04T19:07:15.342Z,59.05
2023-06-04T19:09:41.956Z,59.18
2023-06-04T19:12:08.693Z,60.20
2023-06-04T19:14:35.281Z,60.19
2023-06-04T19:17:03.105Z,60.06
2023-06-04T19:19:29.741Z,61.22
2023-06-04T19:21:56.256Z,62.11
2023-06-04T19:24:22.851Z,60.42
2023-06-04T19:26:50.133Z,62.08
2023-06-04T19:29:16.780Z,63.00
2023-06-04T19:31:43.396Z,62.99
2023-06-04T19:34:10.042Z,63.13
2023-06-04T19:36:36.659Z,63.92
2023-06-04T19:39:03.265Z,63.20
2023-06-04T19:41:29.846Z,63.63
2023-06-04T19:43:56.439Z,63.08
2023-06-04T19:46:23.164Z,62.93
2023-06-04T19:48:49.832Z,64.09
2023-06-04T19:51:16.351Z,63.94
2023-06-04T19:53:42.870Z,63.89
2023-06-04T19:56:09.583Z,65.19
2023-06-04T19:58:36.544Z,64.76
2023-06-04T20:01:03.307Z,66.13
2023-06-04T20:03:32.317Z,67.69
2023-06-04T20:05:59.124Z,67.57
2023-06-04T20:08:25.665Z,69.72
2023-06-04T20:10:52.181Z,68.63
2023-06-04T20:13:18.942Z,68.28
2023-06-04T20:15:45.644Z,68.07
2023-06-04T20:18:13.206Z,68.09
2023-06-04T20:20:39.896Z,68.33
2023-06-04T20:23:06.753Z,69.33
2023-06-04T20:25:33.743Z,69.04
2023-06-04T20:28:00.473Z,68.49
2023-06-04T20:30:27.179Z,68.78
2023-06-04T20:32:56.671Z,68.75
2023-06-04T20:35:23.297Z,68.17
2023-06-04T20:37:50.130Z,68.93
2023-06-04T20:40:17.050Z,68.95
2023-06-04T20:42:43.724Z,69.00
2023-06-04T20:45:10.743Z,69.43
2023-06-04T20:47:37.400Z,68.99
2023-06-04T20:50:04.145Z,69.22
2023-06-04T20:52:30.764Z,70.21
2023-06-04T20:54:57.314Z,70.57
2023-06-04T20:57:23.927Z,70.79
2023-06-04T20:59:50.533Z,70.43
2023-06-04T21:02:17.257Z,70.83
2023-06-04T21:04:43.883Z,72.43
2023-06-04T21:07:12.414Z,72.65
2023-06-04T21:09:39.383Z,72.67
2023-06-04T21:12:06.999Z,73.33
2023-06-04T21:14:33.568Z,74.36
2023-06-04T21:17:00.372Z,74.12
2023-06-04T21:19:29.624Z,73.82
2023-06-04T21:21:57.164Z,74.47
2023-06-04T21:24:23.791Z,75.09
2023-06-04T21:26:50.418Z,74.75
2023-06-04T21:29:16.967Z,75.70
2023-06-04T21:31:43.622Z,75.13
2023-06-04T21:34:10.841Z,76.18
2023-06-04T21:36:37.501Z,75.97
2023-06-04T21:39:04.467Z,77.72
2023-06-04T21:41:31.288Z,78.03
2023-06-04T21:43:57.862Z,78.96
2023-06-04T21:46:25.080Z,79.43
2023-06-04T21:48:51.802Z,79.06
2023-06-04T21:51:18.388Z,78.68
2023-06-04T21:53:44.992Z,79.61
2023-06-04T21:56:11.485Z,80.40
2023-06-04T21:58:38.034Z,79.51
2023-06-04T22:01:04.707Z,80.64
2023-06-04T22:03:31.589Z,80.34
2023-06-04T22:05:58.304Z,80.19
2023-06-04T22:08:24.846Z,79.89
2023-06-04T22:10:51.758Z,81.11
2023-06-04T22:13:18.318Z,81.47
2023-06-04T22:15:45.013Z,82.40
2023-06-04T22:18:11.615Z,82.41
2023-06-04T22:20:38.240Z,83.20
2023-06-04T22:23:04.774Z,82.51
2023-06-04T22:25:31.411Z,83.05
2023-06-04T22:27:57.957Z,83.00
2023-06-04T22:30:24.509Z,83.62
2023-06-04T22:32:51.240Z,82.83
2023-06-04T22:35:18.165Z,84.32
2023-06-04T22:37:44.717Z,84.21
2023-06-04T22:40:11.498Z,84.21
2023-06-04T22:42:38.111Z,85.76
2023-06-04T22:45:04.970Z,85.66
2023-06-04T22:47:31.583Z,86.84
2023-06-04T22:49:58.166Z,85.04
2023-06-04T22:52:24.806Z,86.59
2023-06-04T22:54:51.389Z,86.88
2023-06-04T22:57:17.964Z,87.15
2023-06-04T22:59:44.526Z,88.26
2023-06-04T23:02:13.411Z,87.39
2023-06-04T23:04:40.011Z,87.92
2023-06-04T23:07:06.612Z,87.89
2023-06-04T23:09:33.143Z,89.49
2023-06-04T23:11:59.761Z,88.95
2023-06-04T23:14:26.337Z,89.11
2023-06-04T23:16:56.707Z,90.07
2023-06-04T23:19:23.251Z,89.03
2023-06-04T23:21:49.858Z,90.14
2023-06-04T23:24:16.532Z,90.71
2023-06-04T23:26:43.085Z,90.78
2023-06-04T23:29:09.646Z,91.32
2023-06-04T23:31:36.317Z,92.14
2023-06-04T23:34:03.013Z,92.91
2023-06-04T23:36:30.478Z,93.69
2023-06-04T23:38:57.006Z,97.26
2023-06-04T23:41:23.537Z,97.41
2023-06-04T23:43:50.175Z,97.80
2023-06-04T23:46:16.866Z,100.00
2023-06-04T23:48:43.593Z,100.00
2023-06-04T23:51:10.720Z,100.00
2023-06-04T23:53:37.455Z,100.00
2023-06-04T23:56:03.993Z,100.00
2023-06-04T23:58:30.522Z,100.00
